Time;durP1;ratioP1;P1;durP2;ratioP2;P2;SDS_P1;SDS_P2;PMS_P1;PMS_P2;Temp;Humidity;BMP_temperature;BMP_pressure;BME280_temperature;BME280_humidity;BME280_pressure;Samples;Min_cycle;Max_cycle;Signal;HPM_P1;HPM_P2
2022/06/20 00:00:05;;;;;;;8.63;1.98;;;14.40;99.90;;;;;;4977825;28;20042;-51
2022/06/20 00:02:31;;;;;;;11.93;2.72;;;14.40;99.90;;;;;;4981074;28;20047;-55
2022/06/20 00:05:00;;;;;;;8.70;2.50;;;14.30;99.90;;;;;;4977483;28;20049;-55
2022/06/20 00:07:26;;;;;;;6.68;1.67;;;14.40;99.90;;;;;;4949524;28;20084;-52
2022/06/20 00:09:52;;;;;;;7.20;1.63;;;14.30;99.90;;;;;;4960790;28;20046;-53
2022/06/20 00:12:26;;;;;;;6.35;1.88;;;14.30;99.90;;;;;;4962996;28;20401;-51
2022/06/20 00:14:54;;;;;;;;;;;14.30;99.90;;;;;;4967111;28;20397;-55
2022/06/20 00:17:20;;;;;;;9.65;1.85;;;14.20;99.90;;;;;;4962701;28;19965;-52
2022/06/20 00:19:46;;;;;;;8.27;2.33;;;14.20;99.90;;;;;;4959182;28;20589;-53
2022/06/20 00:22:12;;;;;;;9.90;1.95;;;14.20;99.90;;;;;;4963777;28;20041;-55
2022/06/20 00:24:38;;;;;;;10.45;1.92;;;14.20;99.90;;;;;;4971929;28;20038;-54
2022/06/20 00:27:06;;;;;;;7.17;1.63;;;14.20;99.90;;;;;;4970489;28;20394;-52
2022/06/20 00:29:40;;;;;;;9.80;1.80;;;14.20;99.90;;;;;;4961582;28;20164;-54
2022/06/20 00:32:06;;;;;;;;;;;14.20;99.90;;;;;;4963923;28;20644;-52
2022/06/20 00:34:32;;;;;;;5.55;2.28;;;14.10;99.90;;;;;;4947711;28;21055;-52
2022/06/20 00:36:59;;;;;;;9.38;1.55;;;14.10;99.90;;;;;;4960896;28;20042;-52
2022/06/20 00:39:25;;;;;;;5.85;1.60;;;14.10;99.90;;;;;;4959599;28;20218;-51
2022/06/20 00:41:51;;;;;;;7.97;1.80;;;14.10;99.90;;;;;;4963717;28;20430;-51
2022/06/20 00:44:27;;;;;;;4.70;1.50;;;14.10;99.90;;;;;;4964559;28;20181;-51
2022/06/20 00:46:57;;;;;;;5.03;1.80;;;14.10;99.90;;;;;;4962122;28;20049;-53
2022/06/20 00:49:31;;;;;;;5.30;1.65;;;14.00;99.90;;;;;;4961121;28;20533;-52
2022/06/20 00:52:12;;;;;;;8.32;2.13;;;14.00;99.90;;;;;;4959886;28;20100;-54
2022/06/20 00:54:46;;;;;;;7.07;1.63;;;14.00;99.90;;;;;;4964278;28;20034;-48
2022/06/20 00:57:20;;;;;;;7.95;2.22;;;14.00;99.90;;;;;;4960642;28;20038;-53
2022/06/20 01:00:04;;;;;;;7.97;1.60;;;13.90;99.90;;;;;;4941936;28;20057;-52
2022/06/20 01:02:33;;;;;;;7.20;2.58;;;13.90;99.90;;;;;;4960906;28;20046;-55
2022/06/20 01:05:02;;;;;;;7.45;2.38;;;13.90;99.90;;;;;;4966185;28;20080;-52
2022/06/20 01:07:51;;;;;;;9.02;1.88;;;13.90;99.90;;;;;;4959138;28;20050;-55
2022/06/20 01:10:18;;;;;;;5.60;1.50;;;13.90;99.90;;;;;;4968494;28;20683;-53
2022/06/20 01:12:53;;;;;;;4.57;1.52;;;13.90;99.90;;;;;;4975079;28;20417;-52
2022/06/20 01:15:32;;;;;;;6.88;1.65;;;14.00;99.90;;;;;;4971187;28;20038;-52
2022/06/20 01:17:58;;;;;;;3.92;1.75;;;14.00;99.90;;;;;;4963721;28;20061;-52
2022/06/20 01:20:30;;;;;;;5.82;1.65;;;14.00;99.90;;;;;;4962792;28;20393;-51
2022/06/20 01:23:01;;;;;;;3.28;1.50;;;14.10;99.90;;;;;;4959208;28;20054;-53
2022/06/20 01:25:54;;;;;;;11.35;2.42;;;14.10;99.90;;;;;;4968623;28;20050;-53
2022/06/20 01:28:25;;;;;;;4.50;1.40;;;14.20;99.90;;;;;;4942886;28;20394;-52
2022/06/20 01:30:51;;;;;;;9.07;1.75;;;14.20;99.90;;;;;;4963236;28;20046;-50
2022/06/20 01:33:20;;;;;;;9.05;2.10;;;13.90;99.90;;;;;;4977357;28;20046;-50
2022/06/20 01:38:32;;;;;;;;;;;14.10;99.90;;;;;;4975063;28;20235;-51
2022/06/20 01:43:44;;;;;;;6.07;1.52;;;14.10;99.90;;;;;;4960736;28;20417;-51
2022/06/20 01:46:12;;;;;;;6.55;1.15;;;14.10;99.90;;;;;;4966287;28;20604;-50
2022/06/20 01:48:49;;;;;;;9.50;2.17;;;14.00;99.90;;;;;;4967235;28;20054;-51
2022/06/20 01:51:24;;;;;;;5.72;1.48;;;14.00;99.90;;;;;;4946218;28;20531;-49
2022/06/20 01:53:51;;;;;;;7.28;1.58;;;13.90;99.90;;;;;;4926744;28;1173539;-51
2022/06/20 01:56:21;;;;;;;5.68;2.03;;;13.90;99.90;;;;;;4974532;28;20066;-54
2022/06/20 01:58:53;;;;;;;12.02;1.80;;;13.90;99.90;;;;;;4963664;28;20237;-51
2022/06/20 02:01:19;;;;;;;8.05;1.88;;;13.90;99.90;;;;;;4966684;28;20053;-51
2022/06/20 02:03:46;;;;;;;8.35;2.20;;;13.80;99.90;;;;;;4943602;28;20041;-50
2022/06/20 02:06:15;;;;;;;5.32;1.70;;;13.70;99.90;;;;;;4960997;28;20100;-51
2022/06/20 02:08:43;;;;;;;8.13;1.77;;;13.70;99.90;;;;;;4962227;28;20402;-52
2022/06/20 02:11:18;;;;;;;7.07;1.65;;;13.70;99.90;;;;;;4963587;28;20045;-51
2022/06/20 02:13:49;;;;;;;5.43;1.67;;;13.60;99.90;;;;;;4964442;28;20045;-51
2022/06/20 02:16:18;;;;;;;8.00;1.92;;;13.70;99.90;;;;;;4961611;28;20640;-55
2022/06/20 02:18:46;;;;;;;4.10;1.80;;;13.70;99.90;;;;;;4962647;28;20037;-50
2022/06/20 02:21:23;;;;;;;6.85;2.10;;;13.70;99.90;;;;;;4962833;28;20712;-51
2022/06/20 02:23:53;;;;;;;3.55;1.38;;;13.70;99.90;;;;;;4967513;28;20061;-52
2022/06/20 02:26:21;;;;;;;4.47;1.67;;;13.70;99.90;;;;;;4968884;28;20042;-52
2022/06/20 02:29:24;;;;;;;7.00;1.85;;;13.60;99.90;;;;;;4968548;28;20050;-50
2022/06/20 02:31:55;;;;;;;5.28;1.60;;;13.60;99.90;;;;;;4967346;28;20049;-53
2022/06/20 02:34:26;;;;;;;7.82;2.13;;;13.50;99.90;;;;;;4966134;28;21367;-52
2022/06/20 02:36:54;;;;;;;6.35;1.88;;;13.40;99.90;;;;;;4966292;28;20738;-52
2022/06/20 02:39:21;;;;;;;7.15;1.63;;;13.40;99.90;;;;;;4967186;28;20042;-54
2022/06/20 02:41:53;;;;;;;8.35;2.33;;;13.30;99.90;;;;;;4944033;28;20832;-50
2022/06/20 02:44:20;;;;;;;6.57;1.95;;;13.40;99.90;;;;;;4963833;28;20571;-52
2022/06/20 02:46:48;;;;;;;6.10;2.60;;;13.30;99.90;;;;;;4959831;28;20046;-53
2022/06/20 02:49:17;;;;;;;8.00;2.50;;;13.20;99.90;;;;;;4951001;28;20508;-52
2022/06/20 02:51:52;;;;;;;9.90;3.05;;;13.20;99.90;;;;;;4967720;28;20046;-52
2022/06/20 02:54:21;;;;;;;6.45;1.98;;;13.20;99.90;;;;;;4984200;28;20045;-51
2022/06/20 02:56:51;;;;;;;9.98;1.90;;;13.10;99.90;;;;;;4962494;28;20079;-50
2022/06/20 02:59:21;;;;;;;8.15;2.35;;;13.20;99.90;;;;;;4960967;28;20057;-53
2022/06/20 03:02:02;;;;;;;7.40;2.42;;;13.20;99.90;;;;;;4963774;28;21207;-51
2022/06/20 03:04:31;;;;;;;5.63;2.15;;;13.20;99.90;;;;;;4964628;28;20077;-52
2022/06/20 03:07:01;;;;;;;9.43;3.22;;;13.20;99.90;;;;;;4961572;28;20568;-50
2022/06/20 03:09:31;;;;;;;5.28;2.08;;;13.10;99.90;;;;;;4963005;28;20046;-52
2022/06/20 03:11:59;;;;;;;4.30;2.35;;;13.10;99.90;;;;;;4965059;28;20043;-52
2022/06/20 03:14:36;;;;;;;7.60;2.30;;;13.10;99.90;;;;;;4965277;28;20550;-51
2022/06/20 03:17:04;;;;;;;5.57;2.25;;;13.00;99.90;;;;;;4969194;28;20034;-51
2022/06/20 03:19:33;;;;;;;6.10;2.55;;;13.00;99.90;;;;;;4966274;28;20050;-48
2022/06/20 03:22:04;;;;;;;9.15;2.75;;;13.00;99.90;;;;;;4965862;28;20173;-50
2022/06/20 03:24:31;;;;;;;9.32;2.75;;;12.90;99.90;;;;;;4980877;28;20408;-52
2022/06/20 03:26:59;;;;;;;7.25;2.45;;;12.90;99.90;;;;;;4965163;28;20494;-52
2022/06/20 03:29:25;;;;;;;10.77;3.50;;;12.90;99.90;;;;;;4966401;28;20061;-50
2022/06/20 03:31:53;;;;;;;7.95;3.35;;;12.80;99.90;;;;;;4966625;28;20038;-51
2022/06/20 03:34:21;;;;;;;6.63;2.70;;;12.80;99.90;;;;;;4964833;28;20049;-49
2022/06/20 03:36:48;;;;;;;9.32;3.38;;;12.90;99.90;;;;;;4963232;28;20382;-53
2022/06/20 03:39:15;;;;;;;8.73;3.08;;;12.90;99.90;;;;;;4967524;28;20055;-50
2022/06/20 03:41:42;;;;;;;12.45;3.20;;;12.90;99.90;;;;;;4970287;28;20142;-50
2022/06/20 03:44:14;;;;;;;7.57;2.80;;;12.90;99.90;;;;;;4970353;28;20088;-49
2022/06/20 03:46:53;;;;;;;9.50;3.35;;;12.90;99.90;;;;;;4967075;28;20051;-50
2022/06/20 03:49:45;;;;;;;9.43;3.10;;;12.90;99.90;;;;;;4968850;28;20502;-51
2022/06/20 03:52:13;;;;;;;10.40;3.20;;;12.80;99.90;;;;;;4963499;28;20075;-52
2022/06/20 03:55:05;;;;;;;7.07;2.80;;;12.80;99.90;;;;;;4949451;28;20198;-50
2022/06/20 03:58:16;;;;;;;8.10;2.50;;;12.80;99.90;;;;;;4966324;28;21114;-50
2022/06/20 04:01:03;;;;;;;7.07;2.90;;;12.80;99.90;;;;;;4889490;29;20162;-52
2022/06/20 04:04:05;;;;;;;8.13;2.92;;;12.90;99.90;;;;;;4874403;29;20067;-53
2022/06/20 04:07:07;;;;;;;9.57;2.92;;;12.90;99.90;;;;;;4924248;28;20054;-50
2022/06/20 04:13:10;;;;;;;6.07;3.10;;;13.00;99.90;;;;;;4966069;28;20073;-53
2022/06/20 04:15:44;;;;;;;8.50;3.88;;;13.00;99.90;;;;;;4963251;28;20275;-52
2022/06/20 04:18:27;;;;;;;;;;;13.00;99.90;;;;;;4965648;28;20169;-51
2022/06/20 04:21:17;;;;;;;10.95;3.95;;;12.90;99.90;;;;;;4964722;28;19926;-52
2022/06/20 04:23:58;;;;;;;8.27;2.92;;;12.90;99.90;;;;;;4968108;28;20042;-53
2022/06/20 04:26:56;;;;;;;10.43;3.33;;;12.90;99.90;;;;;;4964624;28;20042;-51
2022/06/20 04:29:27;;;;;;;11.00;3.63;;;12.90;99.90;;;;;;4964340;28;20055;-50
2022/06/20 04:32:01;;;;;;;12.27;3.63;;;12.90;99.90;;;;;;4967071;28;20030;-52
2022/06/20 04:34:39;;;;;;;7.90;3.08;;;12.90;99.90;;;;;;4965710;28;20042;-52
2022/06/20 04:37:32;;;;;;;5.95;3.30;;;12.90;99.90;;;;;;4966592;28;20596;-51
2022/06/20 04:40:10;;;;;;;9.85;3.60;;;12.90;99.90;;;;;;4963973;28;20042;-52
2022/06/20 04:42:54;;;;;;;11.13;4.75;;;12.90;99.90;;;;;;4977834;28;20054;-52
2022/06/20 04:45:33;;;;;;;11.75;4.35;;;13.00;99.90;;;;;;4965692;28;20137;-53
2022/06/20 04:48:10;;;;;;;9.38;4.10;;;13.00;99.90;;;;;;4965664;28;20454;-51
2022/06/20 04:50:36;;;;;;;10.68;3.85;;;13.00;99.90;;;;;;4964821;28;20042;-51
2022/06/20 04:53:06;;;;;;;10.88;4.20;;;13.00;99.90;;;;;;4966142;28;20568;-51
2022/06/20 04:55:34;;;;;;;7.03;3.40;;;13.10;99.90;;;;;;4963758;28;20129;-50
2022/06/20 04:58:04;;;;;;;11.85;4.75;;;13.20;99.90;;;;;;4963753;28;20042;-53
2022/06/20 05:00:43;;;;;;;10.02;4.15;;;13.20;99.90;;;;;;4957896;28;20390;-51
2022/06/20 05:03:14;;;;;;;12.32;4.35;;;13.30;99.90;;;;;;4966660;28;20513;-51
2022/06/20 05:05:44;;;;;;;10.60;4.65;;;13.30;99.90;;;;;;4963688;28;20528;-54
2022/06/20 05:08:15;;;;;;;11.65;4.82;;;13.40;99.90;;;;;;4968734;28;20095;-49
2022/06/20 05:10:41;;;;;;;10.23;4.53;;;13.40;99.90;;;;;;4968905;28;20041;-52
2022/06/20 05:13:18;;;;;;;10.73;4.20;;;13.40;99.90;;;;;;4966623;28;20038;-51
2022/06/20 05:15:49;;;;;;;13.65;4.18;;;13.50;99.90;;;;;;4931402;23;20106;-56
2022/06/20 05:18:41;;;;;;;11.07;3.92;;;13.60;99.90;;;;;;4923515;28;20130;-55
2022/06/20 05:21:15;;;;;;;15.95;4.03;;;13.70;99.90;;;;;;4905914;29;20438;-53
2022/06/20 05:23:47;;;;;;;13.55;4.18;;;13.80;99.90;;;;;;4907401;29;20564;-56
2022/06/20 05:26:27;;;;;;;15.13;4.43;;;13.90;99.90;;;;;;4933354;28;20052;-56
2022/06/20 05:28:55;;;;;;;15.85;3.65;;;14.00;99.90;;;;;;4906310;29;20044;-55
2022/06/20 05:31:46;;;;;;;10.40;4.00;;;14.00;99.90;;;;;;4904804;29;20130;-55
2022/06/20 05:34:21;;;;;;;10.88;3.88;;;14.10;99.90;;;;;;4901752;29;20632;-53
2022/06/20 05:37:04;;;;;;;13.23;5.22;;;14.20;99.90;;;;;;4907561;29;20517;-56
2022/06/20 05:39:42;;;;;;;9.85;3.60;;;14.20;99.90;;;;;;4934000;28;20054;-55
2022/06/20 05:42:11;;;;;;;10.80;3.85;;;14.20;99.90;;;;;;4905621;29;20441;-57
2022/06/20 05:44:37;;;;;;;8.65;3.40;;;14.30;99.90;;;;;;4891568;29;20062;-55
2022/06/20 05:47:08;;;;;;;15.45;4.07;;;14.40;99.90;;;;;;4935715;28;20495;-55
2022/06/20 05:49:41;;;;;;;7.30;3.58;;;14.50;99.90;;;;;;4923841;28;20043;-52
2022/06/20 05:52:11;;;;;;;10.15;3.35;;;14.60;99.90;;;;;;4909618;29;20450;-53
2022/06/20 05:54:44;;;;;;;9.38;3.30;;;14.60;99.90;;;;;;4937070;28;20103;-56
2022/06/20 05:57:18;;;;;;;10.90;3.28;;;14.70;99.90;;;;;;4906493;29;20766;-54
2022/06/20 05:59:49;;;;;;;12.57;4.10;;;14.70;99.90;;;;;;4908857;29;20052;-58
2022/06/20 06:02:41;;;;;;;11.95;3.83;;;14.80;99.90;;;;;;4909097;29;20414;-56
2022/06/20 06:05:16;;;;;;;9.13;3.28;;;14.90;99.90;;;;;;4916086;29;20948;-52
2022/06/20 06:07:55;;;;;;;10.52;3.22;;;14.90;99.90;;;;;;4938200;28;20063;-56
2022/06/20 06:10:32;;;;;;;14.30;4.05;;;15.00;99.90;;;;;;4906567;29;20951;-55
2022/06/20 06:13:11;;;;;;;11.93;4.28;;;15.00;99.90;;;;;;4907871;29;20048;-56
2022/06/20 06:18:42;;;;;;;10.23;3.38;;;15.20;99.90;;;;;;4916997;29;20075;-56
2022/06/20 06:21:08;;;;;;;14.32;4.15;;;15.30;99.90;;;;;;4923227;28;20047;-55
2022/06/20 06:23:34;;;;;;;9.93;3.53;;;15.30;99.90;;;;;;4938674;28;20106;-57
2022/06/20 06:26:01;;;;;;;12.25;3.35;;;15.40;99.90;;;;;;4903886;29;20578;-54
2022/06/20 06:28:28;;;;;;;9.77;3.17;;;15.40;99.90;;;;;;4924592;28;20295;-55
2022/06/20 06:31:04;;;;;;;12.20;3.33;;;15.40;99.90;;;;;;4908062;29;20043;-54
2022/06/20 06:33:35;;;;;;;12.75;3.50;;;15.50;99.90;;;;;;4924882;28;20134;-55
2022/06/20 06:36:23;;;;;;;15.13;3.60;;;15.50;99.90;;;;;;4921738;28;20036;-54
2022/06/20 06:39:23;;;;;;;14.18;3.60;;;15.70;99.90;;;;;;4936429;28;20495;-55
2022/06/20 06:41:54;;;;;;;9.55;3.40;;;15.70;99.90;;;;;;4936534;28;20110;-57
2022/06/20 06:44:29;;;;;;;16.13;3.70;;;15.80;99.90;;;;;;4909545;29;21592;-54
2022/06/20 06:46:56;;;;;;;10.45;3.20;;;15.80;99.90;;;;;;4924096;28;20048;-55
2022/06/20 06:49:39;;;;;;;8.88;3.00;;;15.80;99.90;;;;;;4904874;29;20047;-55
2022/06/20 06:52:27;;;;;;;12.20;3.28;;;15.90;99.90;;;;;;4940092;28;20441;-55
2022/06/20 06:55:17;;;;;;;10.77;3.25;;;16.10;99.90;;;;;;4938262;28;20534;-56
2022/06/20 06:57:47;;;;;;;8.38;3.10;;;16.10;99.90;;;;;;4900666;29;20054;-56
2022/06/20 07:00:39;;;;;;;11.73;2.72;;;16.20;99.90;;;;;;4924823;28;20151;-53
2022/06/20 07:03:16;;;;;;;8.27;3.33;;;16.10;99.90;;;;;;4928477;28;20311;-53
2022/06/20 07:05:49;;;;;;;8.02;2.53;;;16.10;99.90;;;;;;4904497;29;20122;-56
2022/06/20 07:08:23;;;;;;;9.18;2.78;;;16.20;99.90;;;;;;4922214;28;20306;-57
2022/06/20 07:11:01;;;;;;;5.00;2.28;;;16.30;99.90;;;;;;4921730;28;20047;-55
2022/06/20 07:13:37;;;;;;;5.53;2.00;;;16.40;99.90;;;;;;4924763;28;20047;-56
2022/06/20 07:16:20;;;;;;;12.57;2.53;;;16.50;99.90;;;;;;4937790;28;20224;-55
2022/06/20 07:18:56;;;;;;;7.32;2.40;;;16.60;99.90;;;;;;4910473;29;20086;-55
2022/06/20 07:21:25;;;;;;;8.18;1.98;;;16.00;99.90;;;;;;4887057;29;20043;-57
2022/06/20 07:24:06;;;;;;;6.97;1.98;;;15.80;99.90;;;;;;4884464;29;20051;-54
2022/06/20 07:26:58;;;;;;;6.35;2.30;;;15.70;99.90;;;;;;4904988;29;20127;-56
2022/06/20 07:29:51;;;;;;;4.15;1.60;;;15.80;99.90;;;;;;4933697;28;20059;-57
2022/06/20 07:32:45;;;;;;;6.05;1.92;;;15.90;99.90;;;;;;4909727;29;20570;-56
2022/06/20 07:35:20;;;;;;;10.88;1.98;;;16.10;99.90;;;;;;4889143;29;20675;-56
2022/06/20 07:37:54;;;;;;;5.18;2.30;;;16.20;99.90;;;;;;4929414;28;20044;-55
2022/06/20 07:40:24;;;;;;;7.30;2.08;;;16.40;99.90;;;;;;4928404;28;20271;-57
2022/06/20 07:42:53;;;;;;;8.88;2.72;;;16.40;99.60;;;;;;4914409;28;20059;-55
2022/06/20 07:45:30;;;;;;;7.45;2.53;;;16.30;99.90;;;;;;4905568;29;20114;-53
2022/06/20 07:48:01;;;;;;;6.03;1.95;;;16.50;99.90;;;;;;4905547;29;20051;-54
2022/06/20 07:50:49;;;;;;;7.65;2.15;;;16.40;99.90;;;;;;4919673;28;20055;-56
2022/06/20 07:53:23;;;;;;;6.45;2.00;;;16.60;99.90;;;;;;4914777;28;20173;-55
2022/06/20 07:56:00;;;;;;;4.70;2.00;;;16.70;99.90;;;;;;4917496;28;20069;-56
2022/06/20 07:58:30;;;;;;;7.45;2.50;;;16.80;99.90;;;;;;4902820;29;20770;-57
2022/06/20 08:00:59;;;;;;;8.07;2.33;;;16.70;99.90;;;;;;4937711;28;20519;-56
2022/06/20 08:03:34;;;;;;;6.72;1.92;;;16.70;99.90;;;;;;4903868;29;20047;-57
2022/06/20 08:06:04;;;;;;;5.35;2.08;;;16.90;99.90;;;;;;4916503;28;20366;-55
2022/06/20 08:08:49;;;;;;;9.07;2.42;;;16.80;99.70;;;;;;4910562;29;20374;-54
2022/06/20 08:11:43;;;;;;;11.05;2.42;;;17.00;99.90;;;;;;4919394;28;20044;-56
2022/06/20 08:14:37;;;;;;;10.05;2.45;;;17.10;99.90;;;;;;4913439;29;20046;-55
2022/06/20 08:17:08;;;;;;;9.43;2.90;;;16.80;99.70;;;;;;4946913;28;20143;-57
2022/06/20 08:19:35;;;;;;;7.20;1.90;;;16.60;99.90;;;;;;4901376;29;20058;-56
2022/06/20 08:22:17;;;;;;;5.50;2.13;;;16.60;99.90;;;;;;4919614;28;20182;-55
2022/06/20 08:24:53;;;;;;;8.40;2.50;;;16.80;99.90;;;;;;4932709;28;20131;-57
2022/06/20 08:27:53;;;;;;;5.70;2.72;;;16.50;98.80;;;;;;4948932;28;20055;-57
2022/06/20 08:30:37;;;;;;;7.20;2.15;;;16.50;99.50;;;;;;4912027;29;20316;-57
2022/06/20 08:33:43;;;;;;;7.47;2.17;;;16.70;99.70;;;;;;4910492;29;20514;-57
2022/06/20 08:36:18;;;;;;;5.32;1.83;;;16.90;99.80;;;;;;4938108;28;20043;-56
2022/06/20 08:38:49;;;;;;;9.65;2.30;;;16.90;99.90;;;;;;4910570;29;20089;-56
2022/06/20 08:41:41;;;;;;;7.32;2.22;;;16.70;99.90;;;;;;5074041;27;20474;-54
2022/06/20 08:44:25;;;;;;;11.18;2.30;;;16.50;99.90;;;;;;5081926;28;20048;-53
2022/06/20 08:47:13;;;;;;;12.52;3.05;;;16.40;99.90;;;;;;5073411;28;20054;-53
2022/06/20 08:50:11;;;;;;;9.38;2.10;;;16.60;99.90;;;;;;5059917;28;20511;-55
2022/06/20 08:53:19;;;;;;;4.10;1.88;;;16.80;99.90;;;;;;5062824;28;20495;-55
2022/06/20 08:55:58;;;;;;;9.27;2.45;;;17.10;99.90;;;;;;5057867;28;20459;-54
2022/06/20 08:59:05;;;;;;;9.10;2.45;;;17.10;99.90;;;;;;5052435;28;20289;-55
2022/06/20 09:01:49;;;;;;;8.27;2.97;;;16.80;99.90;;;;;;5060620;28;20117;-55
2022/06/20 09:04:33;;;;;;;;;;;16.90;99.90;;;;;;5063462;28;20506;-55
2022/06/20 09:07:34;;;;;;;6.43;1.98;;;17.10;99.90;;;;;;5067673;28;19962;-53
2022/06/20 09:10:00;;;;;;;4.97;1.58;;;17.20;99.10;;;;;;5045997;28;20907;-56
2022/06/20 09:12:39;;;;;;;6.70;1.60;;;17.10;98.70;;;;;;5040991;28;20048;-54
2022/06/20 09:15:40;;;;;;;8.52;2.15;;;17.20;98.60;;;;;;5056395;28;20044;-55
2022/06/20 09:18:38;;;;;;;5.05;2.03;;;17.30;98.50;;;;;;5058509;28;20040;-55
2022/06/20 09:21:15;;;;;;;8.98;2.05;;;17.20;98.90;;;;;;5048474;28;20137;-54
2022/06/20 09:24:07;;;;;;;5.88;1.50;;;17.50;99.30;;;;;;5068984;28;20691;-55
2022/06/20 09:26:38;;;;;;;5.80;2.20;;;18.00;99.40;;;;;;5062562;28;20044;-54
2022/06/20 09:29:12;;;;;;;7.22;2.25;;;18.20;98.70;;;;;;5060829;28;20142;-55
2022/06/20 09:31:47;;;;;;;6.38;1.80;;;18.30;98.30;;;;;;5073194;28;20463;-55
2022/06/20 09:34:25;;;;;;;5.25;2.35;;;18.20;97.70;;;;;;5058241;28;20068;-54
2022/06/20 09:37:22;;;;;;;6.22;1.95;;;18.10;98.10;;;;;;5065509;28;20044;-53
2022/06/20 09:39:54;;;;;;;5.75;2.00;;;18.10;97.40;;;;;;5052265;28;20064;-54
2022/06/20 09:42:20;;;;;;;7.97;1.92;;;18.20;97.60;;;;;;5058396;28;20042;-56
2022/06/20 09:44:59;;;;;;;7.43;2.40;;;18.30;97.10;;;;;;5057859;28;20037;-56
2022/06/20 09:47:43;;;;;;;7.65;1.83;;;18.20;95.60;;;;;;5055483;28;20616;-55
2022/06/20 09:50:31;;;;;;;7.85;2.22;;;18.30;96.40;;;;;;5038581;28;20075;-55
2022/06/20 09:53:32;;;;;;;9.15;2.08;;;18.40;96.70;;;;;;5046687;28;20033;-56
2022/06/20 09:56:13;;;;;;;11.55;2.58;;;18.60;96.80;;;;;;5048160;28;20494;-55
2022/06/20 09:58:48;;;;;;;10.68;2.60;;;18.60;96.10;;;;;;5048963;28;20168;-56
2022/06/20 10:01:36;;;;;;;13.50;2.97;;;18.30;97.50;;;;;;5045501;28;20060;-56
2022/06/20 10:04:27;;;;;;;11.65;2.70;;;17.50;99.00;;;;;;5045480;28;21949;-54
2022/06/20 10:06:58;;;;;;;8.23;2.83;;;17.30;99.90;;;;;;5044669;28;22814;-56
2022/06/20 10:09:39;;;;;;;9.02;2.97;;;17.50;99.90;;;;;;5045536;28;20754;-55
2022/06/20 10:12:33;;;;;;;13.93;2.97;;;17.80;99.90;;;;;;5045951;28;20126;-55
2022/06/20 10:15:14;;;;;;;8.55;2.40;;;17.90;99.90;;;;;;5040403;28;21240;-55
2022/06/20 10:18:22;;;;;;;8.45;2.30;;;18.10;99.90;;;;;;5050126;28;20055;-57
2022/06/20 10:21:05;;;;;;;9.70;2.97;;;18.10;98.20;;;;;;5047826;28;20061;-56
2022/06/20 10:23:44;;;;;;;6.03;2.20;;;18.00;98.40;;;;;;5049451;28;20128;-56
2022/06/20 10:26:22;;;;;;;7.47;2.30;;;17.90;98.70;;;;;;5048114;28;20676;-56
2022/06/20 10:29:06;;;;;;;9.50;2.42;;;18.30;98.50;;;;;;5061594;28;20403;-55
2022/06/20 10:31:35;;;;;;;7.72;2.47;;;18.40;97.90;;;;;;5050055;28;20453;-56
2022/06/20 10:34:39;;;;;;;9.00;2.10;;;18.70;97.10;;;;;;5042200;28;20051;-55
2022/06/20 10:37:33;;;;;;;6.82;2.78;;;18.90;96.70;;;;;;5046492;28;20190;-56
2022/06/20 10:40:27;;;;;;;5.70;2.42;;;18.80;97.30;;;;;;5042664;28;20055;-56
2022/06/20 10:43:14;;;;;;;9.32;2.35;;;18.10;96.90;;;;;;5038517;28;20499;-56
2022/06/20 10:46:12;;;;;;;9.27;2.85;;;18.20;98.40;;;;;;5063715;28;20052;-56
2022/06/20 10:49:02;;;;;;;7.43;2.42;;;18.40;97.50;;;;;;5027522;28;20044;-56
2022/06/20 10:51:28;;;;;;;6.35;2.55;;;18.30;97.70;;;;;;5053455;28;20049;-55
2022/06/20 10:54:23;;;;;;;8.52;2.65;;;18.00;97.80;;;;;;5052217;28;20039;-53
2022/06/20 10:57:36;;;;;;;8.15;2.63;;;17.80;98.30;;;;;;5058713;28;20120;-54
2022/06/20 11:00:10;;;;;;;5.45;2.17;;;18.10;98.20;;;;;;5015002;28;20043;-55
2022/06/20 11:02:39;;;;;;;5.78;2.08;;;18.40;97.80;;;;;;5056597;28;20029;-55
2022/06/20 11:05:42;;;;;;;4.03;1.88;;;18.30;97.20;;;;;;5055503;28;20051;-56
2022/06/20 11:08:32;;;;;;;5.30;1.67;;;18.50;96.50;;;;;;5057147;28;20040;-56
2022/06/20 11:11:18;;;;;;;5.28;1.85;;;18.70;95.50;;;;;;5054642;28;20510;-53
2022/06/20 11:13:55;;;;;;;6.18;1.95;;;19.30;95.90;;;;;;5053240;28;20041;-56
2022/06/20 11:16:38;;;;;;;6.68;2.15;;;19.30;95.00;;;;;;5056196;28;20049;-56
2022/06/20 11:19:16;;;;;;;7.33;1.90;;;18.90;95.50;;;;;;5054784;28;20408;-55
2022/06/20 11:22:04;;;;;;;4.22;2.08;;;18.60;96.50;;;;;;5064379;28;20036;-53
2022/06/20 11:27:42;;;;;;;8.25;2.63;;;18.20;97.80;;;;;;5073346;28;22354;-53
2022/06/20 11:30:14;;;;;;;8.23;2.25;;;17.80;98.20;;;;;;5080350;28;20130;-53
2022/06/20 11:32:54;;;;;;;6.80;2.15;;;17.60;99.00;;;;;;5083317;28;20101;-52
2022/06/20 11:35:49;;;;;;;6.18;2.22;;;17.60;98.90;;;;;;5059311;28;20615;-51
2022/06/20 11:38:22;;;;;;;;;;;17.70;98.80;;;;;;5088049;28;20085;-50
2022/06/20 11:40:57;;;;;;;6.82;2.13;;;17.90;98.00;;;;;;5103088;28;19933;-51
2022/06/20 11:43:23;;;;;;;4.05;2.10;;;18.00;98.20;;;;;;5086412;28;20051;-51
2022/06/20 11:46:01;;;;;;;9.27;2.10;;;17.80;98.40;;;;;;5105743;28;20031;-52
2022/06/20 11:48:52;;;;;;;8.35;2.17;;;17.80;98.80;;;;;;5101199;28;20031;-53
2022/06/20 11:51:22;;;;;;;9.27;2.45;;;17.50;98.80;;;;;;5096216;28;20162;-54
2022/06/20 11:53:57;;;;;;;8.10;2.38;;;17.40;99.10;;;;;;5061481;28;20067;-54
2022/06/20 11:56:38;;;;;;;9.75;3.22;;;17.70;99.20;;;;;;5096305;27;20036;-52
2022/06/20 11:59:31;;;;;;;11.05;3.13;;;18.20;99.20;;;;;;5076449;28;20035;-51
2022/06/20 12:02:27;;;;;;;8.23;2.23;;;18.10;98.20;;;;;;5096606;28;20046;-54
2022/06/20 12:05:19;;;;;;;5.45;1.80;;;17.70;98.00;;;;;;5094207;28;20036;-55
2022/06/20 12:07:56;;;;;;;5.18;2.20;;;18.10;98.90;;;;;;5074266;28;20039;-52
2022/06/20 12:10:52;;;;;;;4.10;2.00;;;18.30;97.80;;;;;;5062884;28;20044;-54
2022/06/20 12:13:39;;;;;;;5.22;1.75;;;18.30;96.80;;;;;;5097792;28;20126;-54
2022/06/20 12:16:32;;;;;;;6.03;1.67;;;18.70;96.20;;;;;;5091606;28;20039;-55
2022/06/20 12:24:50;;;;;;;6.78;2.40;;;18.80;97.10;;;;;;5094719;28;19920;-52
2022/06/20 12:27:19;;;;;;;7.20;2.20;;;18.90;96.70;;;;;;5095207;28;20039;-55
2022/06/20 12:29:47;;;;;;;6.20;1.83;;;18.40;95.80;;;;;;5080552;28;20086;-55
2022/06/20 12:32:24;;;;;;;6.68;2.10;;;18.30;95.70;;;;;;5096384;28;20047;-55
2022/06/20 12:35:10;;;;;;;6.60;2.20;;;18.50;96.60;;;;;;5094261;28;20043;-54
2022/06/20 12:37:45;;;;;;;5.75;2.00;;;18.80;96.40;;;;;;5077196;28;20447;-55
2022/06/20 12:40:10;;;;;;;4.30;2.15;;;19.20;96.00;;;;;;5080092;28;20055;-54
2022/06/20 12:42:46;;;;;;;5.85;1.90;;;19.70;96.00;;;;;;5097930;28;20032;-54
2022/06/20 12:46:08;;;;;;;6.88;2.22;;;19.70;95.20;;;;;;5096032;28;22928;-55
2022/06/20 12:48:43;;;;;;;4.40;2.08;;;19.40;94.60;;;;;;5067823;28;20425;-55
2022/06/20 12:51:37;;;;;;;8.43;2.50;;;18.90;96.10;;;;;;5082294;28;20070;-54
2022/06/20 12:54:36;;;;;;;6.53;2.25;;;18.60;96.40;;;;;;5089898;28;20437;-54
2022/06/20 12:57:28;;;;;;;3.80;1.90;;;18.60;96.50;;;;;;5062185;28;20043;-53
2022/06/20 13:00:33;;;;;;;9.07;2.70;;;19.00;96.70;;;;;;5053623;28;20105;-52
2022/06/20 13:03:31;;;;;;;8.80;2.40;;;18.40;95.70;;;;;;5059303;28;20070;-54
2022/06/20 13:06:06;;;;;;;4.60;1.70;;;18.40;96.00;;;;;;5095661;28;20302;-54
2022/06/20 13:08:31;;;;;;;4.20;1.67;;;19.00;95.50;;;;;;5072506;28;20055;-55
2022/06/20 13:11:18;;;;;;;2.53;1.48;;;19.30;95.10;;;;;;5078874;28;20657;-54
2022/06/20 13:13:52;;;;;;;2.85;1.75;;;19.50;93.60;;;;;;5096956;28;20062;-55
2022/06/20 13:16:41;;;;;;;6.57;1.80;;;18.90;93.00;;;;;;5095599;28;20039;-55
2022/06/20 13:19:10;;;;;;;4.22;2.00;;;19.10;94.20;;;;;;5058851;28;20081;-54
2022/06/20 13:21:44;;;;;;;4.43;2.15;;;19.50;94.50;;;;;;5079794;28;20043;-54
2022/06/20 13:24:46;;;;;;;6.18;1.90;;;19.30;93.60;;;;;;5099450;28;20390;-53
2022/06/20 13:27:41;;;;;;;7.07;2.08;;;19.40;94.30;;;;;;5097936;28;20450;-56
2022/06/20 13:30:36;;;;;;;5.68;2.03;;;19.20;94.10;;;;;;5092993;28;20044;-53
2022/06/20 13:33:29;;;;;;;5.20;1.58;;;19.40;94.70;;;;;;5099795;27;20044;-54
2022/06/20 13:36:00;;;;;;;2.83;1.42;;;19.20;93.80;;;;;;5101828;27;20043;-55
2022/06/20 13:38:48;;;;;;;4.20;1.70;;;19.30;92.90;;;;;;5079170;28;20106;-55
2022/06/20 13:44:54;;;;;;;3.80;1.90;;;20.00;93.60;;;;;;5048481;28;20041;-54
2022/06/20 13:47:20;;;;;;;8.75;2.88;;;20.10;92.80;;;;;;5027110;28;20068;-56
2022/06/20 13:50:11;;;;;;;7.13;2.38;;;19.70;92.70;;;;;;5043448;28;20139;-55
2022/06/20 13:52:48;;;;;;;6.75;2.47;;;19.80;93.10;;;;;;5035886;28;20170;-50
2022/06/20 13:55:35;;;;;;;6.03;2.03;;;19.50;93.60;;;;;;5046152;28;20048;-51
2022/06/20 13:58:19;;;;;;;7.63;2.05;;;19.70;94.50;;;;;;5046275;28;20059;-53
2022/06/20 14:00:59;;;;;;;6.38;1.90;;;19.70;94.90;;;;;;5043587;28;20437;-55
2022/06/20 14:03:46;;;;;;;6.22;2.08;;;19.40;94.70;;;;;;5032066;28;20072;-54
2022/06/20 14:06:44;;;;;;;9.68;2.60;;;18.90;95.30;;;;;;5041233;28;20052;-56